createdAt,value
2023-05-22T00:00:50.167Z,0.46
2023-05-22T00:01:50.259Z,0.56
2023-05-22T00:02:50.266Z,0.32
2023-05-22T00:03:50.295Z,0.39
2023-05-22T00:04:50.360Z,0.42
2023-05-22T00:05:50.409Z,0.60
2023-05-22T00:06:50.417Z,0.50
2023-05-22T00:07:50.492Z,0.53
2023-05-22T00:08:50.475Z,0.48
2023-05-22T00:09:50.544Z,0.43
2023-05-22T00:10:50.584Z,0.57
2023-05-22T00:11:50.590Z,0.35
2023-05-22T00:12:50.663Z,0.40
2023-05-22T00:13:50.706Z,0.29
2023-05-22T00:14:50.709Z,0.29
2023-05-22T00:15:50.790Z,0.37
2023-05-22T00:16:50.822Z,0.49
2023-05-22T00:17:50.869Z,0.41
2023-05-22T00:18:50.927Z,0.36
2023-05-22T00:19:50.976Z,0.72
2023-05-22T00:20:50.964Z,0.41
2023-05-22T00:21:51.030Z,0.34
2023-05-22T00:22:51.038Z,0.43
2023-05-22T00:23:51.072Z,0.70
2023-05-22T00:24:51.148Z,0.27
2023-05-22T00:25:51.158Z,0.31
2023-05-22T00:26:51.206Z,0.48
2023-05-22T00:27:51.278Z,0.50
2023-05-22T00:28:51.275Z,0.32
2023-05-22T00:29:51.330Z,0.68
2023-05-22T00:30:51.408Z,0.32
2023-05-22T00:31:51.425Z,0.50
2023-05-22T00:32:51.486Z,0.50
2023-05-22T00:33:51.552Z,0.23
2023-05-22T00:34:51.680Z,0.38
2023-05-22T00:35:51.633Z,0.71
2023-05-22T00:36:51.650Z,0.50
2023-05-22T00:37:51.715Z,0.43
2023-05-22T00:38:51.767Z,0.62
2023-05-22T00:39:51.814Z,0.30
2023-05-22T00:40:51.884Z,0.61
2023-05-22T00:41:51.900Z,0.36
2023-05-22T00:42:51.945Z,0.38
2023-05-22T00:43:52.007Z,0.44
2023-05-22T00:44:52.053Z,0.40
2023-05-22T00:45:52.124Z,0.29
2023-05-22T00:46:52.279Z,0.22
2023-05-22T00:47:52.270Z,0.29
2023-05-22T00:48:52.253Z,0.57
2023-05-22T00:49:52.278Z,0.63
2023-05-22T00:50:52.404Z,0.47
2023-05-22T00:51:52.409Z,0.37
2023-05-22T00:52:52.417Z,0.40
2023-05-22T00:53:52.490Z,0.34
2023-05-22T00:54:52.536Z,0.51
2023-05-22T00:55:52.614Z,0.45
2023-05-22T00:56:52.639Z,0.59
2023-05-22T00:57:52.756Z,0.58
2023-05-22T00:58:52.711Z,0.38
2023-05-22T00:59:52.773Z,0.50
2023-05-22T01:00:52.830Z,0.47
2023-05-22T01:01:52.897Z,0.43
2023-05-22T01:02:53.038Z,0.57
2023-05-22T01:03:53.129Z,0.49
2023-05-22T01:04:53.018Z,0.49
2023-05-22T01:05:53.071Z,0.49
2023-05-22T01:06:53.123Z,0.57
2023-05-22T01:07:53.269Z,0.45
2023-05-22T01:08:53.250Z,0.26
2023-05-22T01:09:53.348Z,0.52
2023-05-22T01:10:53.361Z,0.46
2023-05-22T01:11:53.421Z,0.66
2023-05-22T01:12:53.421Z,0.45
2023-05-22T01:13:53.541Z,0.75
2023-05-22T01:14:53.608Z,0.46
2023-05-22T01:15:53.637Z,0.42
2023-05-22T01:16:53.656Z,0.34
2023-05-22T01:17:53.758Z,0.33
2023-05-22T01:18:53.801Z,0.49
2023-05-22T01:19:53.822Z,0.38
2023-05-22T01:20:53.899Z,0.39
2023-05-22T01:21:54.880Z,0.50
2023-05-22T01:22:54.015Z,0.23
2023-05-22T01:23:54.118Z,0.42
2023-05-22T01:24:54.142Z,0.35
2023-05-22T01:25:54.171Z,0.44
2023-05-22T01:26:54.238Z,0.47
2023-05-22T01:27:54.245Z,0.46
2023-05-22T01:28:54.290Z,0.83
2023-05-22T01:29:54.363Z,0.41
2023-05-22T01:30:54.503Z,0.45
2023-05-22T01:31:54.477Z,0.58
2023-05-22T01:32:54.598Z,0.39
2023-05-22T01:33:54.877Z,0.47
2023-05-22T01:34:54.674Z,0.36
2023-05-22T01:35:54.757Z,0.83
2023-05-22T01:36:54.755Z,0.39
2023-05-22T01:37:54.833Z,0.53
2023-05-22T01:38:54.905Z,0.42
2023-05-22T01:39:54.989Z,0.74
2023-05-22T01:40:54.996Z,0.60
2023-05-22T01:41:55.103Z,0.45
2023-05-22T01:42:55.173Z,0.40
2023-05-22T01:43:55.234Z,0.50
2023-05-22T01:44:55.283Z,0.50
2023-05-22T01:45:55.392Z,0.51
2023-05-22T01:46:55.415Z,0.45
2023-05-22T01:47:55.495Z,0.46
2023-05-22T01:48:55.529Z,0.32
2023-05-22T01:49:55.532Z,0.31
2023-05-22T01:50:55.637Z,0.35
2023-05-22T01:51:55.682Z,0.21
2023-05-22T01:52:55.755Z,0.44
2023-05-22T01:53:55.803Z,0.56
2023-05-22T01:54:55.875Z,0.37
2023-05-22T01:55:56.008Z,0.52
2023-05-22T01:56:55.952Z,0.55
2023-05-22T01:57:56.002Z,0.31
2023-05-22T01:58:56.046Z,0.32
2023-05-22T01:59:56.116Z,0.55
2023-05-22T02:00:56.178Z,0.49
2023-05-22T02:01:56.234Z,0.42
2023-05-22T02:02:56.352Z,0.30
2023-05-22T02:03:56.390Z,0.29
2023-05-22T02:04:56.384Z,0.37
2023-05-22T02:05:56.501Z,0.45
2023-05-22T02:06:56.509Z,0.66
2023-05-22T02:07:56.567Z,0.24
2023-05-22T02:08:56.624Z,0.35
2023-05-22T02:09:56.707Z,0.40
2023-05-22T02:10:56.737Z,0.42
2023-05-22T02:11:56.830Z,0.38
2023-05-22T02:12:56.855Z,0.42
2023-05-22T02:13:56.858Z,0.49
2023-05-22T02:14:56.945Z,0.53
2023-05-22T02:15:57.002Z,0.46
2023-05-22T02:16:57.046Z,0.40
2023-05-22T02:17:57.121Z,0.55
2023-05-22T02:18:57.232Z,0.56
2023-05-22T02:19:57.202Z,0.32
2023-05-22T02:20:57.279Z,0.39
2023-05-22T02:21:57.407Z,0.38
2023-05-22T02:22:57.401Z,0.52
2023-05-22T02:23:57.497Z,0.29
2023-05-22T02:24:57.520Z,0.34
2023-05-22T02:25:57.565Z,0.43
2023-05-22T02:26:57.641Z,0.59
2023-05-22T02:27:57.670Z,0.24
2023-05-22T02:28:57.752Z,0.34
2023-05-22T02:29:57.784Z,0.38
2023-05-22T02:30:57.920Z,0.36
2023-05-22T02:31:57.912Z,0.47
2023-05-22T02:32:58.016Z,0.44
2023-05-22T02:33:58.022Z,0.42
2023-05-22T02:34:58.039Z,0.60
2023-05-22T02:35:58.094Z,0.70
2023-05-22T02:36:58.107Z,0.29
2023-05-22T02:37:58.164Z,0.49
2023-05-22T02:38:58.213Z,0.40
2023-05-22T02:39:58.233Z,0.42
2023-05-22T02:40:58.279Z,0.26
2023-05-22T02:41:58.357Z,0.39
2023-05-22T02:42:58.363Z,0.60
2023-05-22T02:43:58.361Z,0.25
2023-05-22T02:44:58.420Z,0.42
2023-05-22T02:45:58.411Z,0.47
2023-05-22T02:46:58.462Z,0.51
2023-05-22T02:47:58.517Z,0.46
2023-05-22T02:48:58.496Z,0.48
2023-05-22T02:49:58.534Z,0.59
2023-05-22T02:50:58.550Z,0.70
2023-05-22T02:51:58.614Z,0.43
2023-05-22T02:52:58.617Z,0.50
2023-05-22T02:53:58.630Z,0.34
2023-05-22T02:54:58.687Z,0.55
2023-05-22T02:55:58.689Z,0.36
2023-05-22T02:56:58.703Z,0.56
2023-05-22T02:57:58.689Z,0.38
2023-05-22T02:58:58.713Z,0.43
2023-05-22T02:59:58.777Z,0.37
2023-05-22T03:00:58.783Z,0.35
2023-05-22T03:01:58.822Z,0.36
2023-05-22T03:02:58.867Z,0.44
2023-05-22T03:03:58.950Z,0.56
2023-05-22T03:04:58.822Z,0.24
2023-05-22T03:05:59.244Z,0.32
2023-05-22T03:06:58.881Z,0.32
2023-05-22T03:07:58.864Z,0.33
2023-05-22T03:08:58.874Z,0.20
2023-05-22T03:09:58.936Z,0.52
2023-05-22T03:10:58.885Z,0.36
2023-05-22T03:11:58.961Z,0.45
2023-05-22T03:12:58.913Z,0.42
2023-05-22T03:13:58.906Z,0.35
2023-05-22T03:14:58.929Z,0.48
2023-05-22T03:15:58.939Z,0.37
2023-05-22T03:16:59.016Z,0.44
2023-05-22T03:17:58.979Z,0.34
2023-05-22T03:18:58.988Z,0.55
2023-05-22T03:19:58.944Z,0.44
2023-05-22T03:20:58.961Z,0.61
2023-05-22T03:21:58.960Z,0.36
2023-05-22T03:22:58.936Z,0.41
2023-05-22T03:23:58.980Z,0.34
2023-05-22T03:24:58.988Z,0.23
2023-05-22T03:25:58.962Z,0.57
2023-05-22T03:26:58.955Z,0.38
2023-05-22T03:27:58.965Z,0.47
2023-05-22T03:28:59.017Z,0.46
2023-05-22T03:29:58.982Z,0.45
2023-05-22T03:30:58.938Z,0.47
2023-05-22T03:31:59.014Z,0.47
2023-05-22T03:32:58.961Z,0.49
2023-05-22T03:33:58.973Z,0.38
2023-05-22T03:34:58.959Z,0.39
2023-05-22T03:35:58.974Z,0.43
2023-05-22T03:36:59.072Z,0.41
2023-05-22T03:37:58.982Z,0.52
2023-05-22T03:38:58.937Z,0.30
2023-05-22T03:39:58.989Z,0.24
2023-05-22T03:40:58.957Z,0.56
2023-05-22T03:41:58.987Z,0.45
2023-05-22T03:42:58.965Z,0.50
2023-05-22T03:43:58.977Z,0.50
2023-05-22T03:44:58.926Z,0.57
2023-05-22T03:45:58.957Z,0.51
2023-05-22T03:46:58.938Z,0.57
2023-05-22T03:47:58.953Z,0.49
2023-05-22T03:48:58.955Z,0.23
2023-05-22T03:49:58.925Z,0.52
2023-05-22T03:50:58.974Z,0.40
2023-05-22T03:51:58.975Z,0.35
2023-05-22T03:52:58.980Z,0.29
2023-05-22T03:53:58.937Z,0.34
2023-05-22T03:54:58.957Z,0.28
2023-05-22T03:55:58.920Z,0.40
2023-05-22T03:56:58.957Z,0.48
2023-05-22T03:57:58.958Z,0.24
2023-05-22T03:58:58.909Z,0.57
2023-05-22T03:59:58.990Z,0.40
2023-05-22T04:00:58.928Z,0.45
2023-05-22T04:01:59.048Z,0.56
2023-05-22T04:02:59.035Z,0.33
2023-05-22T04:03:58.970Z,0.75
2023-05-22T04:04:59.078Z,0.64
2023-05-22T04:05:58.974Z,1.04
2023-05-22T04:06:58.975Z,1.04
2023-05-22T04:07:59.011Z,1.29
2023-05-22T04:08:58.978Z,0.73
2023-05-22T04:09:59.001Z,0.85
2023-05-22T04:10:58.990Z,1.29
2023-05-22T04:11:59.028Z,1.04
2023-05-22T04:12:58.966Z,1.15
2023-05-22T04:13:59.018Z,1.49
2023-05-22T04:14:58.973Z,1.50
2023-05-22T04:15:59.080Z,1.47
2023-05-22T04:16:59.032Z,1.35
2023-05-22T04:17:59.030Z,1.23
2023-05-22T04:18:59.087Z,1.31
2023-05-22T04:19:59.979Z,1.69
2023-05-22T04:20:59.064Z,1.52
2023-05-22T04:21:59.063Z,1.76
2023-05-22T04:22:59.081Z,2.12
2023-05-22T04:23:59.076Z,1.82
2023-05-22T04:24:59.103Z,2.02
2023-05-22T04:25:59.122Z,1.83
2023-05-22T04:26:59.112Z,2.11
2023-05-22T04:27:59.143Z,1.97
2023-05-22T04:28:59.119Z,2.45
2023-05-22T04:29:59.096Z,2.23
2023-05-22T04:30:59.170Z,2.03
2023-05-22T04:31:59.095Z,2.14
2023-05-22T04:32:59.135Z,2.26
2023-05-22T04:33:59.105Z,1.85
2023-05-22T04:34:59.126Z,1.95
2023-05-22T04:35:59.144Z,2.05
2023-05-22T04:36:59.129Z,2.01
2023-05-22T04:37:59.136Z,2.05
2023-05-22T04:38:59.139Z,2.47
2023-05-22T04:39:59.147Z,1.92
2023-05-22T04:40:59.158Z,2.52
2023-05-22T04:41:59.274Z,1.76
2023-05-22T04:42:59.277Z,1.73
2023-05-22T04:43:59.400Z,1.75
2023-05-22T04:44:59.398Z,2.26
2023-05-22T04:45:59.450Z,2.45
2023-05-22T04:46:59.662Z,1.89
2023-05-22T04:47:59.634Z,2.01
2023-05-22T04:48:59.651Z,2.04
2023-05-22T04:49:59.670Z,1.54
2023-05-22T04:51:00.045Z,1.90
2023-05-22T04:51:59.798Z,1.65
2023-05-22T04:52:59.862Z,2.03
2023-05-22T04:53:59.929Z,1.97
2023-05-22T04:55:01.149Z,2.09
2023-05-22T04:55:59.987Z,1.87
2023-05-22T04:57:00.031Z,2.02
2023-05-22T04:58:00.121Z,2.35
2023-05-22T04:59:00.104Z,2.19
2023-05-22T05:00:00.151Z,1.99
2023-05-22T05:01:00.286Z,2.04
2023-05-22T05:02:00.212Z,2.08
2023-05-22T05:03:00.408Z,1.97
2023-05-22T05:04:00.447Z,2.30
2023-05-22T05:05:00.349Z,2.22
2023-05-22T05:06:00.370Z,2.27
2023-05-22T05:07:00.467Z,2.19
2023-05-22T05:08:00.482Z,2.61
2023-05-22T05:09:01.510Z,1.74
2023-05-22T05:10:00.624Z,2.06
2023-05-22T05:11:00.618Z,2.40
2023-05-22T05:12:00.661Z,1.68
2023-05-22T05:13:00.706Z,2.39
2023-05-22T05:14:00.741Z,2.01
2023-05-22T05:15:00.795Z,2.16
2023-05-22T05:16:00.912Z,2.34
2023-05-22T05:17:01.021Z,1.87
2023-05-22T05:18:00.984Z,1.96
2023-05-22T05:19:01.056Z,1.94
2023-05-22T05:20:01.087Z,2.63
2023-05-22T05:21:01.061Z,2.99
2023-05-22T05:22:01.103Z,1.96
2023-05-22T05:23:01.157Z,2.70
2023-05-22T05:24:01.198Z,2.39
2023-05-22T05:25:01.298Z,2.44
2023-05-22T05:26:01.321Z,2.48
2023-05-22T05:27:01.362Z,2.47
2023-05-22T05:28:01.430Z,1.71
2023-05-22T05:29:01.488Z,2.16
2023-05-22T05:30:01.511Z,2.02
2023-05-22T05:31:01.554Z,2.52
2023-05-22T05:32:01.676Z,2.84
2023-05-22T05:33:01.824Z,2.66
2023-05-22T05:34:01.783Z,2.91
2023-05-22T05:35:03.128Z,2.92
2023-05-22T05:36:01.766Z,3.17
2023-05-22T05:37:01.757Z,3.05
2023-05-22T05:38:01.747Z,3.70
2023-05-22T05:39:01.759Z,3.45
2023-05-22T05:40:01.789Z,3.49
2023-05-22T05:41:01.796Z,3.61
2023-05-22T05:42:01.736Z,3.68
2023-05-22T05:43:01.736Z,3.42
2023-05-22T05:44:01.760Z,4.22
2023-05-22T05:45:01.718Z,4.87
2023-05-22T05:46:01.847Z,4.88
2023-05-22T05:47:01.769Z,5.34
2023-05-22T05:48:01.804Z,4.83
2023-05-22T05:49:01.719Z,4.10
2023-05-22T05:50:01.738Z,4.04
2023-05-22T05:51:01.847Z,4.81
2023-05-22T05:52:01.776Z,4.50
2023-05-22T05:53:01.757Z,4.41
2023-05-22T05:54:01.817Z,5.09
2023-05-22T05:55:01.750Z,5.14
2023-05-22T05:56:01.806Z,5.00
2023-05-22T05:57:01.787Z,4.75
2023-05-22T05:58:01.830Z,4.52
2023-05-22T05:59:01.760Z,4.24
2023-05-22T06:00:01.808Z,5.11
2023-05-22T06:01:01.753Z,4.59
2023-05-22T06:02:01.798Z,4.74
2023-05-22T06:03:01.910Z,4.22
2023-05-22T06:04:01.919Z,4.57
2023-05-22T06:05:01.841Z,5.02
2023-05-22T06:06:01.939Z,4.07
2023-05-22T06:07:01.937Z,4.05
2023-05-22T06:08:01.805Z,4.21
2023-05-22T06:09:01.859Z,4.36
2023-05-22T06:10:01.929Z,4.50
2023-05-22T06:11:01.969Z,4.57
2023-05-22T06:12:02.050Z,4.39
2023-05-22T06:13:02.074Z,4.18
2023-05-22T06:14:02.099Z,4.48
2023-05-22T06:15:02.177Z,3.61
2023-05-22T06:16:05.708Z,4.32
2023-05-22T06:17:02.211Z,4.20
2023-05-22T06:18:02.566Z,4.11
2023-05-22T06:19:02.228Z,4.40
2023-05-22T06:20:02.197Z,4.08
2023-05-22T06:21:02.200Z,4.17
2023-05-22T06:22:02.165Z,3.79
2023-05-22T06:23:02.540Z,4.64
2023-05-22T06:24:02.150Z,4.61
2023-05-22T06:25:02.229Z,3.93
2023-05-22T06:26:02.126Z,4.19
2023-05-22T06:27:02.129Z,3.95
2023-05-22T06:28:02.178Z,4.61
2023-05-22T06:29:02.083Z,3.77
2023-05-22T06:30:03.717Z,4.38
2023-05-22T06:31:02.277Z,3.76
2023-05-22T06:32:02.467Z,4.03
2023-05-22T06:33:02.433Z,3.98
2023-05-22T06:34:02.612Z,3.42
2023-05-22T06:35:02.553Z,3.95
2023-05-22T06:36:02.532Z,3.85
2023-05-22T06:37:02.538Z,4.00
2023-05-22T06:38:02.630Z,3.73
2023-05-22T06:39:02.678Z,4.55
2023-05-22T06:40:03.056Z,4.59
2023-05-22T06:41:02.762Z,3.95
2023-05-22T06:42:02.873Z,4.11
2023-05-22T06:43:02.813Z,3.79
2023-05-22T06:44:02.864Z,4.21
2023-05-22T06:45:02.972Z,3.87
2023-05-22T06:46:02.993Z,4.20
2023-05-22T06:47:03.003Z,3.92
2023-05-22T06:48:04.116Z,3.90
2023-05-22T06:49:03.150Z,4.11
2023-05-22T06:50:03.212Z,3.92
2023-05-22T06:51:03.231Z,4.31
2023-05-22T06:52:05.183Z,3.96
2023-05-22T06:53:03.321Z,4.32
2023-05-22T06:54:03.368Z,4.19
2023-05-22T06:55:03.435Z,3.53
2023-05-22T06:56:03.478Z,3.97
2023-05-22T06:57:03.489Z,3.91
2023-05-22T06:58:05.112Z,4.15
2023-05-22T06:59:05.972Z,4.68
2023-05-22T07:00:03.573Z,3.77
2023-05-22T07:01:03.622Z,4.24
2023-05-22T07:02:03.631Z,4.26
2023-05-22T07:03:03.595Z,3.89
2023-05-22T07:04:03.553Z,3.94
2023-05-22T07:05:03.528Z,3.82
2023-05-22T07:06:03.566Z,3.55
2023-05-22T07:07:03.545Z,4.13
2023-05-22T07:08:03.533Z,3.24
2023-05-22T07:09:03.502Z,4.14
2023-05-22T07:10:03.486Z,4.17
2023-05-22T07:11:03.518Z,3.65
2023-05-22T07:12:03.552Z,3.92
2023-05-22T07:13:03.574Z,4.13
2023-05-22T07:14:03.498Z,3.76
2023-05-22T07:15:03.499Z,4.48
2023-05-22T07:16:03.513Z,3.99
2023-05-22T07:17:03.446Z,4.01
2023-05-22T07:18:03.496Z,3.36
2023-05-22T07:19:03.601Z,3.65
2023-05-22T07:20:03.437Z,3.51
2023-05-22T07:21:03.544Z,4.32
2023-05-22T07:22:03.453Z,3.50
2023-05-22T07:23:03.446Z,3.77
2023-05-22T07:24:03.450Z,4.17
2023-05-22T07:25:03.428Z,4.29
2023-05-22T07:26:03.378Z,4.00
2023-05-22T07:27:03.474Z,3.45
2023-05-22T07:28:03.389Z,4.19
2023-05-22T07:29:03.706Z,4.14
2023-05-22T07:30:03.717Z,4.57
2023-05-22T07:31:03.413Z,4.34
2023-05-22T07:32:03.488Z,3.41
2023-05-22T07:33:04.153Z,3.50
2023-05-22T07:34:03.697Z,3.94
2023-05-22T07:35:04.052Z,4.64
2023-05-22T07:36:03.337Z,4.54
2023-05-22T07:37:03.358Z,4.56
2023-05-22T07:38:03.354Z,4.30
2023-05-22T07:39:03.275Z,4.42
2023-05-22T07:40:03.348Z,4.52
2023-05-22T07:41:03.301Z,4.84
2023-05-22T07:42:03.271Z,4.71
2023-05-22T07:43:03.277Z,5.19
2023-05-22T07:44:03.358Z,4.69
2023-05-22T07:45:03.272Z,4.45
2023-05-22T07:46:03.311Z,5.00
2023-05-22T07:47:03.269Z,5.44
2023-05-22T07:48:03.342Z,5.14
2023-05-22T07:49:03.289Z,4.70
2023-05-22T07:50:04.168Z,5.30
2023-05-22T07:51:03.330Z,4.98
2023-05-22T07:52:03.335Z,4.99
2023-05-22T07:53:03.312Z,5.41
2023-05-22T07:54:03.339Z,4.94
2023-05-22T07:55:03.404Z,5.07
2023-05-22T07:56:03.378Z,4.16
2023-05-22T07:57:03.393Z,4.52
2023-05-22T07:58:03.416Z,4.55
2023-05-22T07:59:03.455Z,4.96
2023-05-22T08:00:03.581Z,4.45
2023-05-22T08:01:03.422Z,4.67
2023-05-22T08:02:03.515Z,4.29
2023-05-22T08:03:03.595Z,4.46
2023-05-22T08:04:03.549Z,4.43
2023-05-22T08:05:03.529Z,5.15
2023-05-22T08:06:03.564Z,4.84
2023-05-22T08:07:03.541Z,4.42
2023-05-22T08:08:03.525Z,4.46
2023-05-22T08:09:03.530Z,3.86
2023-05-22T08:10:03.533Z,4.62
2023-05-22T08:11:04.545Z,4.82
2023-05-22T08:12:03.573Z,4.27
2023-05-22T08:13:03.567Z,5.12
2023-05-22T08:14:03.572Z,4.58
2023-05-22T08:15:03.593Z,4.80
2023-05-22T08:16:03.511Z,4.26
2023-05-22T08:17:03.572Z,4.66
2023-05-22T08:18:03.585Z,4.78
2023-05-22T08:19:03.583Z,4.59
2023-05-22T08:20:03.701Z,4.49
2023-05-22T08:21:03.563Z,4.29
2023-05-22T08:22:03.514Z,3.77
2023-05-22T08:23:03.513Z,4.38
2023-05-22T08:24:03.522Z,4.02
2023-05-22T08:25:03.662Z,4.05
2023-05-22T08:26:03.550Z,4.24
2023-05-22T08:27:03.559Z,4.04
2023-05-22T08:28:03.497Z,4.55
2023-05-22T08:29:03.513Z,4.62
2023-05-22T08:30:03.590Z,4.31
2023-05-22T08:31:03.550Z,4.99
2023-05-22T08:32:03.532Z,5.40
2023-05-22T08:33:03.575Z,4.87
2023-05-22T08:34:03.585Z,4.92
2023-05-22T08:35:03.617Z,4.69
2023-05-22T08:36:03.598Z,4.98
2023-05-22T08:37:03.657Z,4.74
2023-05-22T08:38:03.684Z,5.19
2023-05-22T08:39:03.777Z,4.99
2023-05-22T08:40:03.792Z,5.30
2023-05-22T08:41:03.860Z,5.53
2023-05-22T08:42:03.989Z,5.05
2023-05-22T08:43:04.029Z,5.85
2023-05-22T08:44:04.034Z,6.17
2023-05-22T08:45:04.083Z,4.61
2023-05-22T08:46:04.567Z,5.14
2023-05-22T08:47:04.270Z,4.69
2023-05-22T08:48:04.683Z,5.56
2023-05-22T08:49:04.195Z,5.04
2023-05-22T08:50:04.236Z,5.18
2023-05-22T08:51:04.319Z,5.14
2023-05-22T08:52:04.340Z,4.50
2023-05-22T08:53:04.359Z,4.63
2023-05-22T08:54:04.380Z,5.28
2023-05-22T08:55:04.372Z,5.12
2023-05-22T08:56:04.370Z,5.08
2023-05-22T08:57:04.427Z,4.95
2023-05-22T08:58:04.573Z,4.41
2023-05-22T08:59:04.382Z,5.05
2023-05-22T09:00:05.112Z,3.99
2023-05-22T09:01:05.115Z,4.93
2023-05-22T09:02:06.454Z,5.21
2023-05-22T09:03:05.148Z,4.85
2023-05-22T09:04:04.646Z,4.70
2023-05-22T09:05:04.371Z,5.31
2023-05-22T09:06:04.448Z,4.67
2023-05-22T09:07:04.588Z,5.21
2023-05-22T09:08:16.047Z,4.64
2023-05-22T09:09:05.639Z,4.65
2023-05-22T09:10:04.719Z,4.39
2023-05-22T09:11:04.689Z,5.51
2023-05-22T09:12:04.716Z,4.92
2023-05-22T09:13:04.711Z,5.10
2023-05-22T09:14:04.702Z,4.65
2023-05-22T09:15:04.661Z,4.84
2023-05-22T09:16:04.734Z,4.86
2023-05-22T09:17:05.182Z,4.75
2023-05-22T09:18:04.704Z,4.40
2023-05-22T09:19:05.654Z,4.84
2023-05-22T09:20:04.734Z,5.03
2023-05-22T09:21:11.449Z,4.91
2023-05-22T09:22:05.809Z,5.54
2023-05-22T09:23:04.801Z,5.56
2023-05-22T09:24:04.808Z,4.90
2023-05-22T09:25:04.769Z,4.89
2023-05-22T09:26:04.771Z,4.94
2023-05-22T09:27:05.137Z,4.35
2023-05-22T09:28:04.780Z,5.14
2023-05-22T09:29:05.112Z,5.22
2023-05-22T09:30:05.114Z,4.12
2023-05-22T09:31:04.890Z,4.54
2023-05-22T09:32:04.779Z,4.70
2023-05-22T09:33:04.762Z,5.32
2023-05-22T09:34:04.741Z,5.09
2023-05-22T09:35:05.670Z,4.72
2023-05-22T09:36:04.939Z,4.67
2023-05-22T09:37:04.769Z,4.41
2023-05-22T09:38:04.718Z,4.75
2023-05-22T09:39:04.768Z,4.70
2023-05-22T09:40:05.157Z,4.36
2023-05-22T09:41:05.138Z,4.63
2023-05-22T09:42:04.690Z,5.01
2023-05-22T09:43:05.612Z,4.68
2023-05-22T09:44:04.720Z,4.96
2023-05-22T09:45:04.745Z,4.40
2023-05-22T09:46:04.900Z,4.15
2023-05-22T09:47:04.877Z,4.11
2023-05-22T09:48:04.987Z,3.90
2023-05-22T09:49:04.979Z,4.18
2023-05-22T09:50:05.060Z,4.85
2023-05-22T09:51:05.118Z,3.86
2023-05-22T09:52:05.163Z,3.82
2023-05-22T09:53:05.590Z,4.52
2023-05-22T09:54:05.625Z,4.57
2023-05-22T09:55:05.294Z,4.26
2023-05-22T09:56:05.351Z,4.36
2023-05-22T09:57:05.342Z,4.24
2023-05-22T09:58:05.452Z,4.39
2023-05-22T09:59:05.526Z,3.76
2023-05-22T10:00:05.602Z,4.53
2023-05-22T10:01:05.626Z,4.03
2023-05-22T10:02:05.807Z,3.95
2023-05-22T10:03:05.794Z,4.60
2023-05-22T10:04:05.812Z,4.68
2023-05-22T10:05:05.817Z,4.09
2023-05-22T10:06:05.938Z,4.14
2023-05-22T10:07:05.983Z,4.16
2023-05-22T10:08:05.988Z,4.08
2023-05-22T10:09:06.091Z,3.87
2023-05-22T10:10:06.121Z,4.26
2023-05-22T10:11:06.157Z,4.21
2023-05-22T10:12:06.405Z,4.05
2023-05-22T10:13:06.358Z,4.18
2023-05-22T10:14:06.342Z,3.37
2023-05-22T10:15:06.669Z,4.12
2023-05-22T10:16:06.499Z,4.68
2023-05-22T10:17:06.693Z,3.97
2023-05-22T10:18:06.633Z,4.55
2023-05-22T10:19:06.720Z,4.21
2023-05-22T10:20:07.115Z,4.56
2023-05-22T10:21:06.742Z,3.98
2023-05-22T10:22:06.864Z,4.06
2023-05-22T10:23:06.828Z,4.32
2023-05-22T10:24:06.862Z,4.60
2023-05-22T10:25:09.830Z,3.92
2023-05-22T10:26:06.921Z,4.18
2023-05-22T10:27:06.911Z,4.05
2023-05-22T10:28:06.978Z,3.99
2023-05-22T10:29:06.904Z,3.84
2023-05-22T10:30:07.147Z,4.84
2023-05-22T10:31:06.914Z,4.02
2023-05-22T10:32:06.890Z,4.59
2023-05-22T10:33:07.203Z,5.63
2023-05-22T10:34:06.960Z,4.60
2023-05-22T10:35:08.027Z,5.28
2023-05-22T10:36:06.853Z,4.47
2023-05-22T10:37:16.525Z,4.42
2023-05-22T10:38:08.142Z,5.18
2023-05-22T10:39:06.952Z,4.27
2023-05-22T10:40:06.946Z,4.14
2023-05-22T10:41:06.832Z,4.85
2023-05-22T10:42:06.853Z,4.44
2023-05-22T10:43:07.195Z,4.71
2023-05-22T10:44:06.802Z,4.24
2023-05-22T10:45:06.801Z,4.63
2023-05-22T10:46:06.861Z,3.95
2023-05-22T10:47:06.794Z,4.36
2023-05-22T10:48:07.164Z,4.35
2023-05-22T10:49:06.811Z,4.06
2023-05-22T10:50:06.899Z,4.37
2023-05-22T10:51:06.910Z,3.82
2023-05-22T10:52:06.951Z,3.75
2023-05-22T10:53:07.022Z,4.36
2023-05-22T10:54:07.045Z,4.27
2023-05-22T10:55:07.160Z,4.42
2023-05-22T10:56:07.279Z,4.02
2023-05-22T10:57:07.183Z,4.07
2023-05-22T10:58:07.243Z,4.20
2023-05-22T10:59:07.293Z,4.08
2023-05-22T11:00:07.317Z,4.33
2023-05-22T11:01:07.698Z,3.81
2023-05-22T11:02:08.421Z,3.59
2023-05-22T11:03:17.721Z,3.29
2023-05-22T11:04:08.472Z,3.76
2023-05-22T11:05:07.538Z,4.15
2023-05-22T11:06:07.673Z,3.87
2023-05-22T11:07:07.439Z,3.65
2023-05-22T11:08:07.439Z,3.86
2023-05-22T11:09:07.444Z,3.96
2023-05-22T11:10:07.404Z,3.89
2023-05-22T11:11:07.679Z,4.01
2023-05-22T11:12:07.495Z,4.60
2023-05-22T11:13:07.403Z,3.68
2023-05-22T11:14:07.422Z,3.31
2023-05-22T11:15:07.401Z,3.73
2023-05-22T11:16:07.396Z,4.06
2023-05-22T11:17:07.554Z,3.90
2023-05-22T11:18:07.455Z,3.10
2023-05-22T11:19:21.876Z,4.35
2023-05-22T11:20:08.578Z,3.91
2023-05-22T11:21:07.448Z,3.76
2023-05-22T11:22:07.425Z,4.27
2023-05-22T11:23:07.470Z,4.08
2023-05-22T11:24:07.643Z,4.88
2023-05-22T11:25:08.190Z,3.76
2023-05-22T11:26:07.454Z,5.22
2023-05-22T11:27:07.412Z,4.19
2023-05-22T11:28:07.439Z,4.33
2023-05-22T11:29:07.402Z,4.26
2023-05-22T11:30:07.447Z,4.46
2023-05-22T11:31:07.440Z,4.56
2023-05-22T11:32:07.428Z,4.30
2023-05-22T11:33:07.480Z,4.61
2023-05-22T11:34:07.454Z,4.55
2023-05-22T11:35:07.551Z,4.89
2023-05-22T11:36:07.648Z,4.50
2023-05-22T11:37:07.622Z,3.76
2023-05-22T11:38:07.745Z,4.74
2023-05-22T11:39:07.682Z,4.10
2023-05-22T11:40:07.753Z,4.23
2023-05-22T11:41:07.793Z,4.15
2023-05-22T11:42:07.864Z,4.15
2023-05-22T11:43:07.884Z,4.33
2023-05-22T11:44:08.082Z,4.18
2023-05-22T11:45:08.036Z,4.11
2023-05-22T11:46:08.147Z,4.17
2023-05-22T11:47:08.104Z,4.35
2023-05-22T11:48:08.290Z,4.25
2023-05-22T11:49:08.234Z,4.43
2023-05-22T11:50:08.278Z,4.32
2023-05-22T11:51:08.339Z,4.72
2023-05-22T11:52:08.397Z,4.68
2023-05-22T11:53:08.476Z,4.34
2023-05-22T11:54:08.575Z,4.63
2023-05-22T11:55:08.583Z,3.90
2023-05-22T11:56:08.592Z,4.56
2023-05-22T11:57:08.724Z,4.38
2023-05-22T11:58:08.748Z,4.64
2023-05-22T11:59:08.754Z,4.15
2023-05-22T12:00:09.167Z,4.83
2023-05-22T12:01:08.855Z,4.20
2023-05-22T12:02:08.929Z,4.76
2023-05-22T12:03:09.044Z,5.17
2023-05-22T12:04:09.056Z,5.15
2023-05-22T12:05:09.102Z,5.34
2023-05-22T12:06:09.226Z,4.93
2023-05-22T12:07:09.178Z,4.64
2023-05-22T12:08:09.216Z,5.62
2023-05-22T12:09:09.291Z,4.97
2023-05-22T12:10:09.361Z,5.31
2023-05-22T12:11:09.415Z,4.85
2023-05-22T12:12:09.424Z,5.67
2023-05-22T12:13:09.476Z,5.22
2023-05-22T12:14:09.462Z,4.54
2023-05-22T12:15:09.559Z,4.66
2023-05-22T12:16:09.700Z,4.71
2023-05-22T12:17:09.644Z,4.86
2023-05-22T12:18:09.729Z,5.79
2023-05-22T12:19:09.788Z,4.85
2023-05-22T12:20:09.824Z,5.05
2023-05-22T12:21:09.880Z,4.59
2023-05-22T12:22:09.928Z,4.86
2023-05-22T12:23:10.355Z,4.99
2023-05-22T12:24:10.044Z,5.04
2023-05-22T12:25:10.123Z,4.97
2023-05-22T12:26:10.163Z,4.66
2023-05-22T12:27:10.286Z,4.44
2023-05-22T12:28:10.342Z,4.44
2023-05-22T12:29:10.337Z,4.59
2023-05-22T12:30:10.428Z,4.15
2023-05-22T12:31:10.459Z,5.43
2023-05-22T12:32:10.612Z,4.27
2023-05-22T12:33:10.627Z,5.31
2023-05-22T12:34:10.578Z,4.95
2023-05-22T12:35:10.804Z,4.84
2023-05-22T12:36:10.700Z,5.55
2023-05-22T12:37:10.762Z,5.53
2023-05-22T12:38:11.685Z,5.01
2023-05-22T12:39:10.818Z,5.09
2023-05-22T12:40:10.948Z,5.77
2023-05-22T12:41:10.942Z,5.17
2023-05-22T12:42:10.955Z,5.11
2023-05-22T12:43:11.206Z,6.51
2023-05-22T12:44:10.997Z,4.93
2023-05-22T12:45:11.011Z,4.83
2023-05-22T12:46:11.137Z,5.14
2023-05-22T12:47:11.128Z,5.16
2023-05-22T12:48:11.410Z,5.53
2023-05-22T12:49:11.238Z,5.24
2023-05-22T12:50:11.333Z,5.74
2023-05-22T12:51:11.263Z,5.85
2023-05-22T12:52:11.314Z,5.29
2023-05-22T12:53:11.364Z,4.90
2023-05-22T12:54:11.369Z,5.60
2023-05-22T12:55:11.452Z,4.83
2023-05-22T12:56:11.497Z,5.20
2023-05-22T12:57:11.524Z,4.77
2023-05-22T12:58:14.473Z,5.02
2023-05-22T12:59:11.575Z,5.10
2023-05-22T13:00:11.657Z,5.29
2023-05-22T13:01:11.623Z,5.64
2023-05-22T13:02:11.613Z,4.96
2023-05-22T13:03:11.779Z,4.74
2023-05-22T13:04:11.585Z,5.25
2023-05-22T13:05:11.596Z,5.67
2023-05-22T13:06:11.741Z,5.76
2023-05-22T13:07:11.557Z,5.35
2023-05-22T13:08:11.458Z,5.26
2023-05-22T13:09:11.477Z,4.82
2023-05-22T13:10:11.499Z,5.10
2023-05-22T13:11:12.230Z,4.99
2023-05-22T13:12:11.502Z,5.08
2023-05-22T13:13:11.490Z,4.56
2023-05-22T13:14:11.611Z,5.84
2023-05-22T13:15:11.548Z,5.23
2023-05-22T13:16:11.455Z,4.80
2023-05-22T13:17:11.443Z,5.29
2023-05-22T13:18:11.495Z,4.53
2023-05-22T13:19:11.437Z,4.70